Time;durP1;ratioP1;P1;durP2;ratioP2;P2;SDS_P1;SDS_P2;PMS_P1;PMS_P2;Temp;Humidity;BMP_temperature;BMP_pressure;BME280_temperature;BME280_humidity;BME280_pressure;Samples;Min_cycle;Max_cycle;Signal;HPM_P1;HPM_P2
2024/01/09 00:02:22;;;;;;;5.78;2.85;;;;;;;;;;5059807;28;20048;-77
2024/01/09 00:04:48;;;;;;;5.88;3.03;;;;;;;;;;5056834;28;20032;-76
2024/01/09 00:07:14;;;;;;;8.93;3.22;;;;;;;;;;5072028;28;20440;-76
2024/01/09 00:09:40;;;;;;;5.88;3.00;;;;;;;;;;5060422;28;20031;-77
2024/01/09 00:12:07;;;;;;;6.28;3.08;;;;;;;;;;5071831;28;20083;-77
2024/01/09 00:14:33;;;;;;;6.30;2.40;;;;;;;;;;5073170;28;20143;-77
2024/01/09 00:16:59;;;;;;;5.60;2.83;;;;;;;;;;5086990;28;20039;-75
2024/01/09 00:19:29;;;;;;;5.18;2.83;;;;;;;;;;5072023;28;20087;-76
2024/01/09 00:21:56;;;;;;;9.00;3.40;;;;;;;;;;5069601;28;20032;-76
2024/01/09 00:24:22;;;;;;;5.38;3.17;;;;;;;;;;5088088;28;20082;-77
2024/01/09 00:26:49;;;;;;;4.97;2.90;;;;;;;;;;5088032;28;20089;-77
2024/01/09 00:29:16;;;;;;;7.38;2.75;;;;;;;;;;5086472;28;20036;-77
2024/01/09 00:31:44;;;;;;;4.88;2.72;;;;;;;;;;5070834;28;20074;-77
2024/01/09 00:34:10;;;;;;;5.80;2.65;;;;;;;;;;5070353;28;20507;-77
2024/01/09 00:36:42;;;;;;;8.80;3.67;;;;;;;;;;5090080;28;20032;-76
2024/01/09 00:39:09;;;;;;;5.18;2.72;;;;;;;;;;5069541;28;20796;-77
2024/01/09 00:41:35;;;;;;;5.10;2.90;;;;;;;;;;5056429;28;20040;-76
2024/01/09 00:44:01;;;;;;;3.95;2.75;;;;;;;;;;5092751;28;20468;-77
2024/01/09 00:46:28;;;;;;;7.32;3.30;;;;;;;;;;5059786;28;20049;-75
2024/01/09 00:48:54;;;;;;;5.25;3.08;;;;;;;;;;5067288;28;20394;-77
2024/01/09 00:51:20;;;;;;;5.18;3.00;;;;;;;;;;5075823;28;20147;-77
2024/01/09 00:53:46;;;;;;;3.60;2.60;;;;;;;;;;5059361;28;20127;-77
2024/01/09 00:56:12;;;;;;;6.30;2.50;;;;;;;;;;5067737;28;20036;-76
2024/01/09 00:58:38;;;;;;;6.43;2.92;;;;;;;;;;5087972;28;20064;-77
2024/01/09 01:01:05;;;;;;;3.83;2.65;;;;;;;;;;5072851;28;20058;-77
2024/01/09 01:03:31;;;;;;;7.85;2.90;;;;;;;;;;5071610;28;20047;-77
2024/01/09 01:05:57;;;;;;;6.65;2.78;;;;;;;;;;5073145;28;20048;-76
2024/01/09 01:08:23;;;;;;;5.18;3.40;;;;;;;;;;5065234;28;20086;-76
2024/01/09 01:10:49;;;;;;;5.50;3.10;;;;;;;;;;5084718;28;20040;-75
2024/01/09 01:13:15;;;;;;;6.35;3.15;;;;;;;;;;5068145;28;20044;-76
2024/01/09 01:15:45;;;;;;;6.90;3.10;;;;;;;;;;5070004;28;20064;-76
2024/01/09 01:18:11;;;;;;;5.45;3.08;;;;;;;;;;5072430;28;20074;-77
2024/01/09 01:20:37;;;;;;;6.72;2.65;;;;;;;;;;5072932;28;20420;-76
2024/01/09 01:23:03;;;;;;;6.28;2.70;;;;;;;;;;5065179;28;20032;-77
2024/01/09 01:25:29;;;;;;;5.05;3.13;;;;;;;;;;5072863;28;20626;-76
2024/01/09 01:27:55;;;;;;;5.05;2.95;;;;;;;;;;5069084;28;20033;-76
2024/01/09 01:30:21;;;;;;;8.75;3.17;;;;;;;;;;5083317;28;20139;-77
2024/01/09 01:32:47;;;;;;;4.88;3.25;;;;;;;;;;5087627;28;20032;-76
2024/01/09 01:35:13;;;;;;;5.18;2.90;;;;;;;;;;5075006;28;20048;-76
2024/01/09 01:37:39;;;;;;;5.50;3.08;;;;;;;;;;5070406;28;20139;-77
2024/01/09 01:40:06;;;;;;;7.45;3.30;;;;;;;;;;5069733;28;20391;-77
2024/01/09 01:42:32;;;;;;;6.18;3.10;;;;;;;;;;5066086;28;20492;-77
2024/01/09 01:44:58;;;;;;;4.82;2.95;;;;;;;;;;5069746;28;20146;-76
2024/01/09 01:47:24;;;;;;;5.78;2.60;;;;;;;;;;5073008;28;20043;-76
2024/01/09 01:49:51;;;;;;;6.82;3.08;;;;;;;;;;5065685;28;20052;-76
2024/01/09 01:52:17;;;;;;;5.25;3.05;;;;;;;;;;5070676;28;20041;-76
2024/01/09 01:54:43;;;;;;;6.03;2.40;;;;;;;;;;5058994;28;20044;-76
2024/01/09 01:57:10;;;;;;;5.00;2.80;;;;;;;;;;5086502;28;20048;-76
2024/01/09 01:59:38;;;;;;;6.63;2.72;;;;;;;;;;5070786;28;20052;-76
2024/01/09 02:02:04;;;;;;;7.60;3.80;;;;;;;;;;5075860;28;20047;-76
2024/01/09 02:04:30;;;;;;;5.10;2.83;;;;;;;;;;5087036;28;20047;-77
2024/01/09 02:06:56;;;;;;;8.93;2.80;;;;;;;;;;5087315;28;20171;-75
2024/01/09 02:09:22;;;;;;;7.80;2.80;;;;;;;;;;5066912;28;20396;-75
2024/01/09 02:11:49;;;;;;;5.43;2.50;;;;;;;;;;5067476;28;20116;-76
2024/01/09 02:14:15;;;;;;;5.32;2.90;;;;;;;;;;5065196;28;20048;-76
2024/01/09 02:16:42;;;;;;;4.78;2.70;;;;;;;;;;5079698;28;20047;-76
2024/01/09 02:19:08;;;;;;;7.45;3.38;;;;;;;;;;5063668;28;20040;-76
2024/01/09 02:21:34;;;;;;;4.93;2.80;;;;;;;;;;5049212;28;20051;-75
2024/01/09 02:24:00;;;;;;;7.38;3.58;;;;;;;;;;5082239;28;20059;-75
2024/01/09 02:26:31;;;;;;;4.57;2.78;;;;;;;;;;5067225;28;20048;-75
2024/01/09 02:28:59;;;;;;;3.75;2.90;;;;;;;;;;5079477;28;20138;-74
2024/01/09 02:31:26;;;;;;;5.25;2.60;;;;;;;;;;5077517;28;20788;-75
2024/01/09 02:33:52;;;;;;;6.10;3.50;;;;;;;;;;5078062;28;20112;-75
2024/01/09 02:36:18;;;;;;;6.55;2.83;;;;;;;;;;5076555;28;20119;-76
2024/01/09 02:38:44;;;;;;;4.78;3.05;;;;;;;;;;5080709;28;20041;-75
2024/01/09 02:41:10;;;;;;;6.70;3.03;;;;;;;;;;5059086;28;20052;-76
2024/01/09 02:43:36;;;;;;;6.80;3.10;;;;;;;;;;5050629;28;20178;-75
2024/01/09 02:46:02;;;;;;;7.35;3.03;;;;;;;;;;5059196;28;20400;-75
2024/01/09 02:48:28;;;;;;;5.72;2.58;;;;;;;;;;5061782;28;20057;-75
2024/01/09 02:50:54;;;;;;;7.65;2.83;;;;;;;;;;5065414;28;20064;-76
2024/01/09 02:53:20;;;;;;;4.97;3.05;;;;;;;;;;5080370;28;20127;-78
2024/01/09 02:55:46;;;;;;;7.53;3.08;;;;;;;;;;5064238;28;20074;-77
2024/01/09 02:58:12;;;;;;;8.43;3.80;;;;;;;;;;5058827;28;20043;-76
2024/01/09 03:00:39;;;;;;;7.22;3.10;;;;;;;;;;5048050;28;20078;-77
2024/01/09 03:03:05;;;;;;;6.18;2.75;;;;;;;;;;5062140;28;20491;-78
2024/01/09 03:05:31;;;;;;;5.10;3.05;;;;;;;;;;5078041;28;20543;-78
2024/01/09 03:07:57;;;;;;;6.32;3.33;;;;;;;;;;5065550;28;21809;-78
2024/01/09 03:10:23;;;;;;;8.27;4.25;;;;;;;;;;5060550;28;20046;-77
2024/01/09 03:12:49;;;;;;;6.75;3.17;;;;;;;;;;5079144;28;20032;-77
2024/01/09 03:15:15;;;;;;;5.65;3.47;;;;;;;;;;5060861;28;20032;-79
2024/01/09 03:17:41;;;;;;;8.13;3.35;;;;;;;;;;5049270;28;20059;-78
2024/01/09 03:20:08;;;;;;;5.63;3.20;;;;;;;;;;5064643;28;20695;-78
2024/01/09 03:22:34;;;;;;;7.47;3.65;;;;;;;;;;5061605;28;20474;-78
2024/01/09 03:25:00;;;;;;;6.68;3.47;;;;;;;;;;5066623;28;20476;-77
2024/01/09 03:27:26;;;;;;;8.05;3.25;;;;;;;;;;5061941;28;20043;-77
2024/01/09 03:29:52;;;;;;;5.80;3.58;;;;;;;;;;5079328;28;20050;-78
2024/01/09 03:32:19;;;;;;;6.47;3.15;;;;;;;;;;5063092;28;20036;-77
2024/01/09 03:34:46;;;;;;;7.97;3.60;;;;;;;;;;5079155;28;20051;-77
2024/01/09 03:37:13;;;;;;;6.25;2.97;;;;;;;;;;5057305;28;20043;-77
2024/01/09 03:39:39;;;;;;;7.30;3.95;;;;;;;;;;5048544;28;20047;-77
2024/01/09 03:42:05;;;;;;;5.78;3.53;;;;;;;;;;5061728;28;20596;-77
2024/01/09 03:44:31;;;;;;;5.30;3.38;;;;;;;;;;5080792;28;20048;-77
2024/01/09 03:46:57;;;;;;;6.28;3.63;;;;;;;;;;5061228;28;20446;-78
2024/01/09 03:49:23;;;;;;;6.63;3.33;;;;;;;;;;5078058;28;20048;-77
2024/01/09 03:51:49;;;;;;;5.78;3.50;;;;;;;;;;5064813;28;20043;-77
2024/01/09 03:54:15;;;;;;;8.70;3.92;;;;;;;;;;5063139;28;20082;-77
2024/01/09 03:56:42;;;;;;;5.28;3.40;;;;;;;;;;5058973;28;20052;-77
2024/01/09 03:59:08;;;;;;;7.03;3.58;;;;;;;;;;5048352;28;20499;-78
2024/01/09 04:01:34;;;;;;;12.30;4.15;;;;;;;;;;5063130;28;20480;-77
2024/01/09 04:04:00;;;;;;;9.57;4.45;;;;;;;;;;5071101;28;20037;-77
2024/01/09 04:06:26;;;;;;;5.88;3.78;;;;;;;;;;5080586;28;20484;-76
2024/01/09 04:08:52;;;;;;;11.65;4.85;;;;;;;;;;5064524;28;20076;-76
2024/01/09 04:11:18;;;;;;;9.20;3.65;;;;;;;;;;5062168;28;20070;-77
2024/01/09 04:13:44;;;;;;;6.00;3.30;;;;;;;;;;5049473;28;20620;-76
2024/01/09 04:16:13;;;;;;;6.78;3.92;;;;;;;;;;5081392;28;20452;-77
2024/01/09 04:18:39;;;;;;;7.72;3.90;;;;;;;;;;5074775;28;20454;-77
2024/01/09 04:21:05;;;;;;;7.13;3.83;;;;;;;;;;5058667;28;20032;-77
2024/01/09 04:23:32;;;;;;;6.25;3.50;;;;;;;;;;5059498;28;20072;-76
2024/01/09 04:25:58;;;;;;;5.75;3.83;;;;;;;;;;5061010;28;20040;-76
2024/01/09 04:28:24;;;;;;;7.38;3.58;;;;;;;;;;5090915;28;20376;-76
2024/01/09 04:30:50;;;;;;;6.68;3.60;;;;;;;;;;5062976;28;20029;-77
2024/01/09 04:33:16;;;;;;;6.38;3.35;;;;;;;;;;5078626;28;20063;-76
2024/01/09 04:35:42;;;;;;;7.28;3.75;;;;;;;;;;5063578;28;20036;-77
2024/01/09 04:38:08;;;;;;;7.43;3.80;;;;;;;;;;5048632;28;20109;-76
2024/01/09 04:40:34;;;;;;;5.55;3.75;;;;;;;;;;5062542;28;20082;-77
2024/01/09 04:43:00;;;;;;;6.28;3.95;;;;;;;;;;5078176;28;20534;-77
2024/01/09 04:45:26;;;;;;;6.03;4.05;;;;;;;;;;5077433;28;20043;-76
2024/01/09 04:47:52;;;;;;;8.57;4.75;;;;;;;;;;5079814;28;20075;-77
2024/01/09 04:50:18;;;;;;;10.60;4.05;;;;;;;;;;5064705;28;20486;-77
2024/01/09 04:52:44;;;;;;;6.60;4.07;;;;;;;;;;5081019;28;20566;-76
2024/01/09 04:55:12;;;;;;;6.18;3.80;;;;;;;;;;5063239;28;20549;-77
2024/01/09 04:57:38;;;;;;;6.85;4.50;;;;;;;;;;5079042;28;20043;-76
2024/01/09 05:00:04;;;;;;;5.53;3.83;;;;;;;;;;5062403;28;20056;-77
2024/01/09 05:02:30;;;;;;;9.63;4.00;;;;;;;;;;5085296;28;20399;-76
2024/01/09 05:04:56;;;;;;;6.05;3.90;;;;;;;;;;5085161;28;20407;-78
2024/01/09 05:07:22;;;;;;;6.70;3.75;;;;;;;;;;5077637;28;20888;-77
2024/01/09 05:09:49;;;;;;;7.13;3.92;;;;;;;;;;5066549;28;20616;-75
2024/01/09 05:12:15;;;;;;;7.07;4.13;;;;;;;;;;5080844;28;20040;-77
2024/01/09 05:14:42;;;;;;;10.20;4.28;;;;;;;;;;5056629;28;20047;-86
2024/01/09 05:17:08;;;;;;;7.88;4.30;;;;;;;;;;5060931;28;20171;-86
2024/01/09 05:19:34;;;;;;;7.28;3.97;;;;;;;;;;5060505;28;20441;-90
2024/01/09 05:22:04;;;;;;;6.22;4.22;;;;;;;;;;5074552;28;20032;-89
2024/01/09 05:24:30;;;;;;;7.75;4.20;;;;;;;;;;5087369;28;20480;-88
2024/01/09 05:26:56;;;;;;;9.02;4.50;;;;;;;;;;5080915;28;20027;-88
2024/01/09 05:29:22;;;;;;;9.45;4.22;;;;;;;;;;5087964;28;20491;-89
2024/01/09 05:31:48;;;;;;;6.93;4.97;;;;;;;;;;5069740;28;20022;-90
2024/01/09 05:34:15;;;;;;;8.73;4.68;;;;;;;;;;5064212;28;20036;-89
2024/01/09 05:36:41;;;;;;;7.07;4.47;;;;;;;;;;5078931;28;20115;-86
2024/01/09 05:39:07;;;;;;;12.15;5.60;;;;;;;;;;5064127;28;20032;-89
2024/01/09 05:41:33;;;;;;;6.90;4.57;;;;;;;;;;5104032;28;20039;-90
2024/01/09 05:43:59;;;;;;;6.57;3.97;;;;;;;;;;5073881;28;20047;-90
2024/01/09 05:46:26;;;;;;;6.82;4.03;;;;;;;;;;5092755;28;20089;-88
2024/01/09 05:48:52;;;;;;;7.68;4.05;;;;;;;;;;5077957;28;20055;-89
2024/01/09 05:51:19;;;;;;;7.15;3.97;;;;;;;;;;5083661;28;20044;-89
2024/01/09 05:53:47;;;;;;;7.00;4.05;;;;;;;;;;5089111;28;20040;-91
2024/01/09 05:56:13;;;;;;;7.20;4.55;;;;;;;;;;5100073;28;20040;-89
2024/01/09 05:58:39;;;;;;;7.80;4.40;;;;;;;;;;5074754;28;20035;-86
2024/01/09 06:01:05;;;;;;;6.38;3.88;;;;;;;;;;5063091;28;20082;-89
2024/01/09 06:03:31;;;;;;;5.72;3.60;;;;;;;;;;5084047;28;20040;-89
2024/01/09 06:05:57;;;;;;;6.00;4.03;;;;;;;;;;5093650;28;20115;-85
2024/01/09 06:08:24;;;;;;;5.70;4.03;;;;;;;;;;5067949;28;20058;-90
2024/01/09 06:10:50;;;;;;;5.18;3.45;;;;;;;;;;5077526;28;20055;-89
2024/01/09 06:13:16;;;;;;;6.38;3.92;;;;;;;;;;5099889;28;20032;-91
2024/01/09 06:15:42;;;;;;;6.32;4.07;;;;;;;;;;5060069;28;20044;-87
2024/01/09 06:18:08;;;;;;;6.07;3.90;;;;;;;;;;5062442;28;20037;-90
2024/01/09 06:20:34;;;;;;;6.55;4.10;;;;;;;;;;5092805;28;20554;-86
2024/01/09 06:23:00;;;;;;;6.80;4.25;;;;;;;;;;5076902;28;20032;-89
2024/01/09 06:25:26;;;;;;;6.82;4.18;;;;;;;;;;5059921;28;20028;-88
2024/01/09 06:27:52;;;;;;;7.53;3.83;;;;;;;;;;5075824;28;20071;-90
2024/01/09 06:30:18;;;;;;;7.13;3.95;;;;;;;;;;5056466;28;20541;-86
2024/01/09 06:32:44;;;;;;;7.30;4.07;;;;;;;;;;5077879;28;20035;-89
2024/01/09 06:35:10;;;;;;;11.65;5.47;;;;;;;;;;5070639;28;20483;-89
2024/01/09 06:37:38;;;;;;;6.70;4.80;;;;;;;;;;5071292;28;20033;-89
2024/01/09 06:40:04;;;;;;;8.82;4.10;;;;;;;;;;5071392;28;20505;-88
2024/01/09 06:42:30;;;;;;;10.70;4.65;;;;;;;;;;5070306;28;20072;-89
2024/01/09 06:44:56;;;;;;;7.50;4.05;;;;;;;;;;5073950;28;20044;-89
2024/01/09 06:47:22;;;;;;;5.72;4.00;;;;;;;;;;5066783;28;20403;-90
2024/01/09 06:49:49;;;;;;;7.63;4.22;;;;;;;;;;5082831;28;20047;-89
2024/01/09 06:52:15;;;;;;;7.43;4.25;;;;;;;;;;5083325;28;20480;-89
2024/01/09 06:54:41;;;;;;;10.02;4.47;;;;;;;;;;5085552;28;20040;-85
2024/01/09 06:57:08;;;;;;;8.07;4.55;;;;;;;;;;5090159;28;20111;-88
2024/01/09 06:59:37;;;;;;;5.95;4.13;;;;;;;;;;5079698;28;20048;-86
2024/01/09 07:02:03;;;;;;;9.75;4.30;;;;;;;;;;5072828;28;20048;-87
2024/01/09 07:04:29;;;;;;;7.93;4.10;;;;;;;;;;5061055;28;20557;-87
2024/01/09 07:06:55;;;;;;;12.38;5.45;;;;;;;;;;5062743;28;20040;-87
2024/01/09 07:09:21;;;;;;;10.55;4.60;;;;;;;;;;5076968;28;20040;-88
2024/01/09 07:11:47;;;;;;;7.43;4.57;;;;;;;;;;5101244;27;20032;-88
2024/01/09 07:14:15;;;;;;;6.82;4.57;;;;;;;;;;5074300;28;20043;-88
2024/01/09 07:16:41;;;;;;;6.25;4.28;;;;;;;;;;5059246;28;20036;-87
2024/01/09 07:19:07;;;;;;;10.90;5.20;;;;;;;;;;5069668;28;20676;-86
2024/01/09 07:21:33;;;;;;;9.30;5.30;;;;;;;;;;5072049;28;20082;-87
2024/01/09 07:23:59;;;;;;;7.78;4.53;;;;;;;;;;5068272;28;20032;-85
2024/01/09 07:26:25;;;;;;;7.82;4.80;;;;;;;;;;5063552;28;20032;-87
2024/01/09 07:28:51;;;;;;;9.05;5.28;;;;;;;;;;5058010;28;20292;-86
2024/01/09 07:31:17;;;;;;;6.75;4.75;;;;;;;;;;5069222;28;20042;-86
2024/01/09 07:33:43;;;;;;;8.55;4.68;;;;;;;;;;5073078;28;20036;-88
2024/01/09 07:36:09;;;;;;;9.13;5.15;;;;;;;;;;5071324;28;20044;-86
2024/01/09 07:38:35;;;;;;;6.68;5.07;;;;;;;;;;5055459;28;20075;-87
2024/01/09 07:41:02;;;;;;;11.30;5.38;;;;;;;;;;5053053;28;20101;-88
2024/01/09 07:43:29;;;;;;;7.15;4.88;;;;;;;;;;5072530;28;20044;-88
2024/01/09 07:45:55;;;;;;;8.82;5.00;;;;;;;;;;5073196;28;20041;-89
2024/01/09 07:48:21;;;;;;;8.93;5.40;;;;;;;;;;5086652;28;20044;-88
2024/01/09 07:50:47;;;;;;;7.57;5.13;;;;;;;;;;5065601;28;20660;-88
2024/01/09 07:53:13;;;;;;;10.52;5.60;;;;;;;;;;5058906;28;20036;-88
2024/01/09 07:55:39;;;;;;;9.50;5.68;;;;;;;;;;5067535;28;20180;-89
2024/01/09 07:58:06;;;;;;;9.38;5.13;;;;;;;;;;5074238;28;20039;-89
2024/01/09 08:00:33;;;;;;;11.38;5.68;;;;;;;;;;5065480;28;20079;-88
2024/01/09 08:02:59;;;;;;;9.75;5.35;;;;;;;;;;5073433;28;20452;-87
2024/01/09 08:05:25;;;;;;;10.30;5.93;;;;;;;;;;5069156;28;20081;-87
2024/01/09 08:07:51;;;;;;;10.18;5.80;;;;;;;;;;5082200;28;20060;-88
2024/01/09 08:10:17;;;;;;;7.93;5.22;;;;;;;;;;5068683;28;20440;-86
2024/01/09 08:12:43;;;;;;;7.90;5.10;;;;;;;;;;5055349;28;20036;-87
2024/01/09 08:15:10;;;;;;;7.20;5.22;;;;;;;;;;5102256;28;20036;-87
2024/01/09 08:17:36;;;;;;;9.85;5.75;;;;;;;;;;5071495;28;20078;-89
2024/01/09 08:20:03;;;;;;;6.43;4.70;;;;;;;;;;5083900;28;20040;-88
2024/01/09 08:22:29;;;;;;;8.60;5.00;;;;;;;;;;5074093;28;20036;-88
2024/01/09 08:24:55;;;;;;;9.20;5.55;;;;;;;;;;5077260;28;20051;-88
2024/01/09 08:27:21;;;;;;;10.00;5.50;;;;;;;;;;5095232;28;20499;-88
2024/01/09 08:29:47;;;;;;;8.50;5.88;;;;;;;;;;5078917;28;20040;-87
2024/01/09 08:32:16;;;;;;;10.85;6.35;;;;;;;;;;5070116;28;20046;-88
2024/01/09 08:34:42;;;;;;;11.20;6.00;;;;;;;;;;5068783;28;20078;-87
2024/01/09 08:37:08;;;;;;;9.25;5.35;;;;;;;;;;5057908;28;20036;-88
2024/01/09 08:39:35;;;;;;;11.02;6.28;;;;;;;;;;5064468;28;20055;-86
2024/01/09 08:42:01;;;;;;;12.63;6.13;;;;;;;;;;5076325;28;20565;-86
2024/01/09 08:44:27;;;;;;;8.98;5.00;;;;;;;;;;5091258;28;20047;-86
2024/01/09 08:46:53;;;;;;;9.20;5.63;;;;;;;;;;5079873;28;20412;-87
2024/01/09 08:49:20;;;;;;;7.38;4.72;;;;;;;;;;5074359;28;20048;-86
2024/01/09 08:51:47;;;;;;;10.98;6.03;;;;;;;;;;5070902;28;20039;-85
2024/01/09 08:54:14;;;;;;;11.40;5.40;;;;;;;;;;5058848;28;20047;-86
2024/01/09 08:56:40;;;;;;;9.75;5.85;;;;;;;;;;5084080;28;20044;-86
2024/01/09 08:59:09;;;;;;;10.15;5.72;;;;;;;;;;5089603;28;20039;-87
2024/01/09 09:01:38;;;;;;;10.02;5.57;;;;;;;;;;5076262;28;20048;-88
2024/01/09 09:04:04;;;;;;;9.00;4.75;;;;;;;;;;5067758;28;20119;-88
2024/01/09 09:06:30;;;;;;;9.63;5.57;;;;;;;;;;5086865;28;20075;-87
2024/01/09 09:08:57;;;;;;;9.75;4.90;;;;;;;;;;5088235;28;20051;-86
2024/01/09 09:11:23;;;;;;;7.80;5.25;;;;;;;;;;5065346;28;20078;-88
2024/01/09 09:13:49;;;;;;;10.50;5.75;;;;;;;;;;5076105;28;20496;-88
2024/01/09 09:16:15;;;;;;;10.43;5.65;;;;;;;;;;5077643;28;20039;-89
2024/01/09 09:18:42;;;;;;;7.75;5.00;;;;;;;;;;5052466;28;20040;-89
2024/01/09 09:21:08;;;;;;;9.43;4.70;;;;;;;;;;5073784;28;20400;-89
2024/01/09 09:23:34;;;;;;;6.90;4.72;;;;;;;;;;5087135;28;20063;-88
2024/01/09 09:26:01;;;;;;;9.88;4.90;;;;;;;;;;5073135;28;20043;-87
2024/01/09 09:28:27;;;;;;;9.57;5.57;;;;;;;;;;5083250;28;20118;-87
2024/01/09 09:30:53;;;;;;;7.78;5.72;;;;;;;;;;5056159;28;20040;-87
2024/01/09 09:33:20;;;;;;;9.35;5.15;;;;;;;;;;5080045;28;20406;-89
2024/01/09 09:35:46;;;;;;;9.32;4.60;;;;;;;;;;5090782;28;20028;-86
2024/01/09 09:38:14;;;;;;;8.77;5.05;;;;;;;;;;5090822;28;20071;-90
2024/01/09 09:40:41;;;;;;;9.48;4.88;;;;;;;;;;5088436;28;20036;-89
2024/01/09 09:43:14;;;;;;;10.98;5.50;;;;;;;;;;5094446;28;20044;-86
2024/01/09 09:45:42;;;;;;;6.40;4.95;;;;;;;;;;5091657;28;20429;-89
2024/01/09 09:48:09;;;;;;;9.63;4.88;;;;;;;;;;5094752;28;20042;-88
2024/01/09 09:50:35;;;;;;;8.35;5.18;;;;;;;;;;5058886;28;20032;-88
2024/01/09 09:53:01;;;;;;;7.28;4.50;;;;;;;;;;5068135;28;20081;-88
2024/01/09 09:55:27;;;;;;;8.02;5.15;;;;;;;;;;5071530;28;20524;-87
2024/01/09 09:57:53;;;;;;;9.00;5.13;;;;;;;;;;5076679;28;20036;-87
2024/01/09 10:00:19;;;;;;;6.65;4.65;;;;;;;;;;5057297;28;20062;-87
2024/01/09 10:02:49;;;;;;;6.80;4.80;;;;;;;;;;5060844;28;20050;-83
2024/01/09 10:05:16;;;;;;;7.03;4.25;;;;;;;;;;5075292;28;20032;-85
2024/01/09 10:07:45;;;;;;;7.03;4.88;;;;;;;;;;5058760;28;20080;-85
2024/01/09 10:10:14;;;;;;;10.43;6.10;;;;;;;;;;5073953;28;20044;-85
2024/01/09 10:12:41;;;;;;;6.03;4.38;;;;;;;;;;5094232;28;20044;-84
2024/01/09 10:15:11;;;;;;;7.45;5.13;;;;;;;;;;5082504;28;20119;-86
2024/01/09 10:17:37;;;;;;;7.78;4.95;;;;;;;;;;5070753;28;20188;-86
2024/01/09 10:20:04;;;;;;;8.32;5.00;;;;;;;;;;5057877;28;20032;-88
2024/01/09 10:22:33;;;;;;;7.03;4.60;;;;;;;;;;5071328;28;20058;-86
2024/01/09 10:25:00;;;;;;;6.32;4.28;;;;;;;;;;5068795;28;20483;-84
2024/01/09 10:27:27;;;;;;;6.63;4.20;;;;;;;;;;5083198;28;20139;-86
2024/01/09 10:29:53;;;;;;;7.50;4.35;;;;;;;;;;5073903;28;20479;-85
2024/01/09 10:32:19;;;;;;;6.70;4.85;;;;;;;;;;5068711;28;20051;-85
2024/01/09 10:34:45;;;;;;;8.82;4.45;;;;;;;;;;5072742;28;20552;-86
2024/01/09 10:37:13;;;;;;;6.95;4.22;;;;;;;;;;5065642;28;20052;-86
2024/01/09 10:39:40;;;;;;;5.50;4.10;;;;;;;;;;5082592;28;20563;-84
2024/01/09 10:42:06;;;;;;;5.22;3.60;;;;;;;;;;5071644;28;20072;-86
2024/01/09 10:44:32;;;;;;;4.95;3.42;;;;;;;;;;5073052;28;20058;-86
2024/01/09 10:47:00;;;;;;;5.78;3.80;;;;;;;;;;5088812;28;20114;-87
2024/01/09 10:49:26;;;;;;;7.60;4.53;;;;;;;;;;5080136;28;20036;-87
2024/01/09 10:51:53;;;;;;;6.68;4.28;;;;;;;;;;5067679;28;20039;-87
2024/01/09 10:54:20;;;;;;;6.50;4.07;;;;;;;;;;5088646;28;20039;-86
2024/01/09 10:56:47;;;;;;;7.10;4.45;;;;;;;;;;5070965;28;20057;-86
2024/01/09 10:59:17;;;;;;;7.10;4.30;;;;;;;;;;5084447;28;20997;-85
2024/01/09 11:01:43;;;;;;;4.93;3.85;;;;;;;;;;5070212;28;20459;-85
2024/01/09 11:04:09;;;;;;;6.18;4.25;;;;;;;;;;5066068;28;20102;-85
2024/01/09 11:06:36;;;;;;;5.95;4.00;;;;;;;;;;5066487;28;20043;-87
2024/01/09 11:09:07;;;;;;;5.78;4.15;;;;;;;;;;5089386;28;20169;-88
2024/01/09 11:11:36;;;;;;;5.07;3.47;;;;;;;;;;5092432;28;20094;-87
2024/01/09 11:14:06;;;;;;;5.63;3.80;;;;;;;;;;5073657;28;20061;-89
2024/01/09 11:16:36;;;;;;;6.55;3.85;;;;;;;;;;5087458;28;20039;-88
2024/01/09 11:19:03;;;;;;;7.45;3.63;;;;;;;;;;5091596;28;20054;-87
2024/01/09 11:21:31;;;;;;;5.28;3.78;;;;;;;;;;5099091;27;20040;-88
2024/01/09 11:24:00;;;;;;;5.82;4.00;;;;;;;;;;5084131;28;20487;-87
2024/01/09 11:26:31;;;;;;;5.85;4.03;;;;;;;;;;5071512;28;20066;-88
2024/01/09 11:28:59;;;;;;;6.28;3.45;;;;;;;;;;5087680;28;20040;-84
2024/01/09 11:31:27;;;;;;;5.53;3.45;;;;;;;;;;5084236;28;20043;-86
2024/01/09 11:33:55;;;;;;;6.35;4.10;;;;;;;;;;5079835;28;20039;-86
2024/01/09 11:36:24;;;;;;;5.28;3.60;;;;;;;;;;5071168;28;20032;-86
2024/01/09 11:38:53;;;;;;;4.10;3.22;;;;;;;;;;5075074;28;20040;-86
2024/01/09 11:41:22;;;;;;;4.95;3.72;;;;;;;;;;5087980;28;20045;-86
2024/01/09 11:44:00;;;;;;;3.22;2.85;;;;;;;;;;5099432;28;20051;-87
2024/01/09 11:46:27;;;;;;;5.18;3.38;;;;;;;;;;5080860;28;20403;-85
2024/01/09 11:48:53;;;;;;;5.78;3.65;;;;;;;;;;5059352;28;20511;-84
2024/01/09 11:51:21;;;;;;;4.72;3.50;;;;;;;;;;5072853;28;20119;-87
2024/01/09 11:53:48;;;;;;;4.85;3.10;;;;;;;;;;5073243;28;20082;-84
2024/01/09 11:56:14;;;;;;;5.65;3.60;;;;;;;;;;5057596;28;20499;-86
2024/01/09 11:58:42;;;;;;;4.55;3.17;;;;;;;;;;5071136;28;20621;-86
2024/01/09 12:01:08;;;;;;;5.25;3.50;;;;;;;;;;5080789;28;20058;-86
2024/01/09 12:03:36;;;;;;;5.25;3.10;;;;;;;;;;5073857;28;20499;-85
2024/01/09 12:06:04;;;;;;;5.18;2.97;;;;;;;;;;5073747;28;20040;-87
2024/01/09 12:08:31;;;;;;;6.75;3.53;;;;;;;;;;5089862;28;20051;-88
2024/01/09 12:11:02;;;;;;;6.28;3.83;;;;;;;;;;5082795;28;20115;-87
2024/01/09 12:13:28;;;;;;;4.35;3.10;;;;;;;;;;5066029;28;20039;-88
2024/01/09 12:15:54;;;;;;;5.38;3.58;;;;;;;;;;5078839;28;20039;-82
2024/01/09 12:18:21;;;;;;;5.18;3.13;;;;;;;;;;5061486;28;20032;-83
2024/01/09 12:20:49;;;;;;;5.90;3.03;;;;;;;;;;5062165;28;20125;-82
2024/01/09 12:23:15;;;;;;;5.45;3.17;;;;;;;;;;5075289;28;20040;-84
2024/01/09 12:25:44;;;;;;;5.18;3.50;;;;;;;;;;5069634;28;20403;-82
2024/01/09 12:28:11;;;;;;;3.55;2.80;;;;;;;;;;5090152;28;20073;-82
2024/01/09 12:30:37;;;;;;;2.95;2.30;;;;;;;;;;5093427;28;20043;-82
2024/01/09 12:33:03;;;;;;;4.70;2.53;;;;;;;;;;5086127;28;20127;-79
2024/01/09 12:35:29;;;;;;;4.80;3.05;;;;;;;;;;5085981;28;20123;-82
2024/01/09 12:37:56;;;;;;;4.93;3.30;;;;;;;;;;5092480;28;20039;-82
2024/01/09 12:40:22;;;;;;;4.28;2.88;;;;;;;;;;5089697;28;20484;-81
2024/01/09 12:43:08;;;;;;;3.85;2.53;;;;;;;;;;5071159;28;20062;-82
2024/01/09 12:45:34;;;;;;;4.35;2.70;;;;;;;;;;5091734;28;20044;-83
2024/01/09 12:48:02;;;;;;;3.83;2.58;;;;;;;;;;5083819;28;20442;-83
2024/01/09 12:50:28;;;;;;;4.88;3.28;;;;;;;;;;5060654;28;20047;-81
2024/01/09 12:52:54;;;;;;;5.75;2.60;;;;;;;;;;5098448;27;20040;-83
2024/01/09 12:55:20;;;;;;;3.17;2.30;;;;;;;;;;5072103;28;20028;-80
2024/01/09 12:57:46;;;;;;;14.73;2.75;;;;;;;;;;5092931;28;20035;-82
2024/01/09 13:00:12;;;;;;;3.38;2.22;;;;;;;;;;5058834;28;20514;-81
2024/01/09 13:02:39;;;;;;;3.05;2.40;;;;;;;;;;5072229;28;20048;-82
2024/01/09 13:05:05;;;;;;;3.42;2.80;;;;;;;;;;5075227;28;20040;-82
2024/01/09 13:07:31;;;;;;;4.00;2.45;;;;;;;;;;5070017;28;20062;-82
2024/01/09 13:09:57;;;;;;;3.17;2.83;;;;;;;;;;5073718;28;20040;-82
2024/01/09 13:12:23;;;;;;;4.32;2.90;;;;;;;;;;5077536;28;20059;-81
2024/01/09 13:14:49;;;;;;;3.10;2.38;;;;;;;;;;5084897;28;20115;-82
2024/01/09 13:17:15;;;;;;;3.25;2.30;;;;;;;;;;5081680;28;20071;-81
2024/01/09 13:19:41;;;;;;;3.65;2.53;;;;;;;;;;5087528;28;20039;-82
2024/01/09 13:22:07;;;;;;;2.63;2.30;;;;;;;;;;5087255;28;20044;-82
2024/01/09 13:24:34;;;;;;;3.40;2.58;;;;;;;;;;5079995;28;20544;-82
2024/01/09 13:27:00;;;;;;;3.42;2.47;;;;;;;;;;5069459;28;20036;-82
2024/01/09 13:29:29;;;;;;;4.05;2.40;;;;;;;;;;5069133;28;20090;-81
2024/01/09 13:31:55;;;;;;;3.60;2.40;;;;;;;;;;5069788;28;20144;-81
2024/01/09 13:34:21;;;;;;;3.92;2.38;;;;;;;;;;5089980;28;20052;-81
2024/01/09 13:36:48;;;;;;;3.58;2.88;;;;;;;;;;5087106;28;20064;-82
2024/01/09 13:39:14;;;;;;;4.50;2.50;;;;;;;;;;5068279;28;20075;-82
2024/01/09 13:41:45;;;;;;;3.00;2.45;;;;;;;;;;5083167;28;20424;-80
2024/01/09 13:44:12;;;;;;;3.63;2.72;;;;;;;;;;5079775;28;20109;-80
2024/01/09 13:46:38;;;;;;;5.68;2.65;;;;;;;;;;5069524;28;20518;-81
2024/01/09 13:49:04;;;;;;;4.90;2.35;;;;;;;;;;5055288;28;20040;-81
2024/01/09 13:51:30;;;;;;;3.70;2.80;;;;;;;;;;5087140;28;20046;-81
2024/01/09 13:53:56;;;;;;;3.17;2.60;;;;;;;;;;5057584;28;20130;-80
2024/01/09 13:56:23;;;;;;;3.80;2.63;;;;;;;;;;5084811;28;20388;-81
2024/01/09 13:58:51;;;;;;;4.80;2.45;;;;;;;;;;5081857;28;20051;-81
2024/01/09 14:01:17;;;;;;;2.65;2.40;;;;;;;;;;5078379;28;20052;-81
2024/01/09 14:03:43;;;;;;;3.40;2.38;;;;;;;;;;5067501;28;20117;-81
2024/01/09 14:06:09;;;;;;;5.10;2.50;;;;;;;;;;5071285;28;20716;-81
2024/01/09 14:08:37;;;;;;;5.78;2.63;;;;;;;;;;5088246;28;20082;-80
2024/01/09 14:11:03;;;;;;;6.38;2.78;;;;;;;;;;5068338;28;20032;-83
2024/01/09 14:13:30;;;;;;;4.53;2.50;;;;;;;;;;5054127;28;20040;-83
2024/01/09 14:15:57;;;;;;;4.45;2.55;;;;;;;;;;5081260;28;20045;-82
2024/01/09 14:18:23;;;;;;;4.50;2.90;;;;;;;;;;5088152;28;20118;-82
2024/01/09 14:20:49;;;;;;;3.90;2.40;;;;;;;;;;5072626;28;20126;-81
2024/01/09 14:23:15;;;;;;;4.70;2.55;;;;;;;;;;5075308;28;20042;-81
2024/01/09 14:25:41;;;;;;;3.53;2.45;;;;;;;;;;5062541;28;20040;-82
2024/01/09 14:28:07;;;;;;;5.68;2.80;;;;;;;;;;5057794;28;20043;-81
2024/01/09 14:30:33;;;;;;;4.53;2.92;;;;;;;;;;5065852;28;20484;-83
2024/01/09 14:32:59;;;;;;;2.97;2.33;;;;;;;;;;5072320;28;20028;-84
2024/01/09 14:35:25;;;;;;;5.07;2.88;;;;;;;;;;5077094;28;20047;-83
2024/01/09 14:37:53;;;;;;;3.75;2.78;;;;;;;;;;5067462;28;20090;-88
2024/01/09 14:40:20;;;;;;;3.92;2.72;;;;;;;;;;5068028;28;20044;-87